Time;durP1;ratioP1;P1;durP2;ratioP2;P2;SDS_P1;SDS_P2;PMS_P1;PMS_P2;Temp;Humidity;BMP_temperature;BMP_pressure;BME280_temperature;BME280_humidity;BME280_pressure;Samples;Min_cycle;Max_cycle;Signal;HPM_P1;HPM_P2
2022/02/27 00:01:48;;;;;;;18.50;6.40;;;;;;;-0.57;88.10;103033.22;5044758;28;20029;-71
2022/02/27 00:04:14;;;;;;;22.55;6.68;;;;;;;-0.62;87.62;103025.66;5023342;28;20033;-72
2022/02/27 00:06:40;;;;;;;19.70;6.80;;;;;;;-0.64;88.21;103021.44;5022722;28;20025;-71
2022/02/27 00:09:05;;;;;;;17.42;6.72;;;;;;;-0.65;88.24;103027.44;5023670;28;20037;-73
2022/02/27 00:11:31;;;;;;;19.13;6.40;;;;;;;-0.68;88.24;103019.84;5046327;28;20084;-71
2022/02/27 00:13:57;;;;;;;17.10;6.25;;;;;;;-0.71;88.47;103025.00;5025355;28;20036;-71
2022/02/27 00:16:22;;;;;;;16.00;6.72;;;;;;;-0.74;88.35;103022.50;5024508;28;20032;-71
2022/02/27 00:18:48;;;;;;;16.20;6.30;;;;;;;-0.77;88.92;103023.41;5048730;28;20037;-70
2022/02/27 00:21:13;;;;;;;19.05;6.32;;;;;;;-0.79;88.51;103027.69;5046678;28;20044;-71
2022/02/27 00:23:39;;;;;;;18.55;7.00;;;;;;;-0.83;88.89;103021.81;5044346;28;20034;-70
2022/02/27 00:26:05;;;;;;;20.08;6.90;;;;;;;-0.86;88.86;103029.50;5048806;28;20035;-71
2022/02/27 00:28:30;;;;;;;15.18;6.22;;;;;;;-0.88;88.76;103030.41;5051059;28;20029;-73
2022/02/27 00:30:58;;;;;;;20.55;6.75;;;;;;;-0.92;88.92;103027.06;5028012;28;20080;-71
2022/02/27 00:33:23;;;;;;;15.75;7.68;;;;;;;-0.94;88.78;103020.31;5014543;28;20060;-70
2022/02/27 00:35:49;;;;;;;22.52;7.40;;;;;;;-0.90;88.86;103021.94;5029712;28;20096;-74
2022/02/27 00:38:16;;;;;;;19.00;7.47;;;;;;;-0.94;89.22;103022.84;5028001;28;20505;-73
2022/02/27 00:40:42;;;;;;;21.10;6.93;;;;;;;-0.96;89.36;103024.59;5030095;28;20032;-73
2022/02/27 00:43:07;;;;;;;16.90;7.07;;;;;;;-0.98;89.51;103014.41;5047055;28;20031;-71
2022/02/27 00:45:33;;;;;;;23.73;7.78;;;;;;;-0.98;89.66;103010.19;5030383;28;20032;-72
2022/02/27 00:47:58;;;;;;;21.25;7.57;;;;;;;-1.00;89.93;103005.97;5029332;28;20029;-70
2022/02/27 00:50:24;;;;;;;20.98;7.55;;;;;;;-1.03;89.83;103000.94;5033277;28;20073;-70
2022/02/27 00:52:50;;;;;;;22.77;6.95;;;;;;;-1.04;90.27;103004.34;5031062;28;20073;-71
2022/02/27 00:55:17;;;;;;;23.30;7.28;;;;;;;-1.06;90.09;102995.91;5043882;22;20056;-71
2022/02/27 00:57:42;;;;;;;19.42;7.50;;;;;;;-1.10;90.35;103000.19;5050308;28;20047;-69
2022/02/27 01:00:09;;;;;;;21.58;7.95;;;;;;;-1.12;90.20;103003.66;5048619;28;20473;-69
2022/02/27 01:02:34;;;;;;;22.70;7.25;;;;;;;-1.18;90.32;103000.34;5053891;28;20123;-69
2022/02/27 01:05:00;;;;;;;18.65;6.40;;;;;;;-1.20;90.42;102996.97;5042128;28;20075;-69
2022/02/27 01:07:26;;;;;;;19.67;7.22;;;;;;;-1.21;90.46;103005.47;5047799;28;20045;-70
2022/02/27 01:09:52;;;;;;;17.48;6.13;;;;;;;-1.21;90.88;103000.38;5041982;28;20656;-69
2022/02/27 01:12:18;;;;;;;23.42;8.10;;;;;;;-1.24;91.19;103000.44;5026790;28;20091;-69
2022/02/27 01:14:44;;;;;;;21.17;6.90;;;;;;;-1.26;90.90;102993.69;5026282;28;20017;-71
2022/02/27 01:17:10;;;;;;;26.13;6.70;;;;;;;-1.28;91.14;103005.59;5025187;28;20028;-67
2022/02/27 01:19:36;;;;;;;22.63;7.45;;;;;;;-1.32;91.22;102999.72;5046413;28;20505;-67
2022/02/27 01:22:02;;;;;;;20.38;7.00;;;;;;;-1.35;91.17;103009.13;5054785;28;20024;-67
2022/02/27 01:24:28;;;;;;;21.38;7.22;;;;;;;-1.40;91.33;103004.94;5051968;28;20513;-67
2022/02/27 01:26:53;;;;;;;18.98;6.82;;;;;;;-1.43;91.25;103009.22;5046032;28;20029;-67
2022/02/27 01:29:19;;;;;;;19.98;7.30;;;;;;;-1.49;90.83;103020.34;5028857;28;20526;-67
2022/02/27 01:31:44;;;;;;;18.63;6.93;;;;;;;-1.53;91.25;103008.53;5033859;28;20044;-67
2022/02/27 01:34:10;;;;;;;19.42;8.25;;;;;;;-1.57;90.98;103015.38;5044593;28;20037;-66
2022/02/27 01:36:35;;;;;;;25.48;7.55;;;;;;;-1.61;91.09;103007.81;5044072;28;20486;-67
2022/02/27 01:39:01;;;;;;;20.48;7.65;;;;;;;-1.65;91.24;103009.56;5029621;28;20067;-67
2022/02/27 01:41:27;;;;;;;30.75;8.10;;;;;;;-1.67;91.12;103011.31;5036403;28;20024;-66
2022/02/27 01:43:52;;;;;;;23.23;6.97;;;;;;;-1.63;90.69;103002.75;5029681;28;20033;-67
2022/02/27 01:46:18;;;;;;;22.85;6.65;;;;;;;-1.68;90.41;103001.97;5010750;28;20393;-66
2022/02/27 01:48:44;;;;;;;20.27;6.40;;;;;;;-1.74;90.69;103014.78;5046641;28;20517;-67
2022/02/27 01:51:10;;;;;;;18.02;7.05;;;;;;;-1.78;90.84;103006.38;5045247;28;20041;-67
2022/02/27 01:53:37;;;;;;;15.30;5.85;;;;;;;-1.79;91.16;103003.84;5036292;28;20422;-66
2022/02/27 01:56:03;;;;;;;24.63;6.68;;;;;;;-1.82;91.48;102999.66;5031654;28;20114;-66
2022/02/27 01:58:30;;;;;;;19.95;6.47;;;;;;;-1.83;91.34;103004.75;5046901;28;20029;-66
2022/02/27 02:00:57;;;;;;;24.67;6.07;;;;;;;-1.83;91.65;103010.69;5034757;28;20510;-67
2022/02/27 02:03:24;;;;;;;24.10;7.00;;;;;;;-1.86;91.50;103005.66;5032080;28;20032;-66
2022/02/27 02:05:50;;;;;;;20.95;6.95;;;;;;;-1.88;91.36;103012.47;5028126;28;20421;-66
2022/02/27 02:08:16;;;;;;;21.67;7.60;;;;;;;-1.89;91.75;103010.75;5028261;28;20036;-66
2022/02/27 02:10:42;;;;;;;18.20;6.90;;;;;;;-1.91;91.76;103002.31;5050497;28;20080;-66
2022/02/27 02:13:09;;;;;;;21.48;7.30;;;;;;;-1.92;91.91;103004.88;5031896;28;20037;-66
2022/02/27 02:15:35;;;;;;;18.67;6.72;;;;;;;-1.94;92.00;103001.50;5046033;28;20028;-66
2022/02/27 02:18:00;;;;;;;15.27;6.38;;;;;;;-1.94;92.05;103004.91;5046580;28;20490;-66
2022/02/27 02:20:26;;;;;;;22.08;6.63;;;;;;;-1.96;92.35;102999.84;5049041;28;20041;-66
2022/02/27 02:22:54;;;;;;;24.63;6.57;;;;;;;-1.99;92.15;102994.78;5045691;28;20459;-66
2022/02/27 02:25:19;;;;;;;16.95;5.75;;;;;;;-2.01;92.03;103000.78;5012982;28;20049;-66
2022/02/27 02:27:47;;;;;;;19.17;6.22;;;;;;;-2.03;92.04;103000.78;5024751;28;20084;-66
2022/02/27 02:30:15;;;;;;;14.93;5.85;;;;;;;-2.05;92.13;102999.97;5022185;28;20107;-66
2022/02/27 02:33:00;;;;;;;18.67;5.55;;;;;;;-2.08;92.28;102994.09;5030150;28;20024;-66
2022/02/27 02:35:27;;;;;;;13.70;6.13;;;;;;;-2.11;92.30;102992.44;5046267;28;20068;-66
2022/02/27 02:37:53;;;;;;;21.95;6.50;;;;;;;-2.14;92.26;102994.19;5049131;28;20032;-65
2022/02/27 02:40:22;;;;;;;18.70;6.47;;;;;;;-2.20;92.39;102987.47;5050579;28;20047;-66
2022/02/27 02:42:48;;;;;;;15.27;6.13;;;;;;;-2.22;92.52;102991.72;5030213;28;20024;-66
2022/02/27 02:45:14;;;;;;;18.08;6.85;;;;;;;-2.25;92.68;102990.06;5028960;28;20037;-66
2022/02/27 02:47:45;;;;;;;16.85;6.18;;;;;;;-2.28;92.64;102987.56;5034704;28;20024;-66
2022/02/27 02:50:13;;;;;;;18.60;6.30;;;;;;;-2.31;92.90;102981.69;5017382;28;20044;-66
2022/02/27 02:52:39;;;;;;;16.55;6.97;;;;;;;-2.35;92.74;102996.13;5048650;28;20043;-66
2022/02/27 02:55:08;;;;;;;16.85;6.53;;;;;;;-2.38;92.92;102991.06;5014676;28;20025;-65
2022/02/27 02:57:33;;;;;;;16.55;6.07;;;;;;;-2.40;93.00;102982.63;5024860;28;20029;-66
2022/02/27 02:59:59;;;;;;;19.35;6.75;;;;;;;-2.41;92.96;102980.94;5041175;28;20545;-65
2022/02/27 03:02:24;;;;;;;22.67;6.35;;;;;;;-2.41;93.29;102980.94;5046527;28;20032;-66
2022/02/27 03:04:50;;;;;;;18.73;6.18;;;;;;;-2.42;93.11;102974.19;5046801;28;20163;-65
2022/02/27 03:07:15;;;;;;;16.08;5.55;;;;;;;-2.43;93.40;102968.25;5011545;28;20052;-66
2022/02/27 03:09:41;;;;;;;21.27;7.10;;;;;;;-2.44;93.40;102971.66;5045082;28;20037;-65
2022/02/27 03:12:07;;;;;;;18.13;7.03;;;;;;;-2.46;93.45;102972.53;5045934;28;20090;-65
2022/02/27 03:14:32;;;;;;;20.48;7.32;;;;;;;-2.48;93.39;102964.94;5044492;28;20108;-65
2022/02/27 03:16:58;;;;;;;15.60;6.38;;;;;;;-2.50;93.37;102960.75;5047462;28;20052;-65
2022/02/27 03:19:23;;;;;;;17.27;6.57;;;;;;;-2.52;93.66;102970.06;5046006;28;20040;-65
2022/02/27 03:21:49;;;;;;;23.17;7.20;;;;;;;-2.55;93.83;102966.69;5047634;28;20483;-65
2022/02/27 03:24:14;;;;;;;19.42;6.53;;;;;;;-2.57;93.80;102965.03;5045888;28;20025;-65
2022/02/27 03:26:41;;;;;;;16.33;6.25;;;;;;;-2.58;93.79;102960.81;5024816;28;20037;-65
2022/02/27 03:29:07;;;;;;;20.88;6.60;;;;;;;-2.59;93.68;102959.97;5045239;28;20029;-66
2022/02/27 03:31:34;;;;;;;18.70;6.97;;;;;;;-2.59;93.97;102967.59;5029968;28;20110;-66
2022/02/27 03:33:59;;;;;;;17.75;6.40;;;;;;;-2.60;93.76;102959.97;5015208;28;20074;-65
2022/02/27 03:36:25;;;;;;;20.10;6.20;;;;;;;-2.61;94.08;102959.16;5032750;28;20032;-66
2022/02/27 03:38:51;;;;;;;21.25;6.72;;;;;;;-2.62;94.13;102957.47;5047533;28;20098;-65
2022/02/27 03:41:17;;;;;;;21.98;6.28;;;;;;;-2.63;94.24;102952.41;5044334;28;20494;-65
2022/02/27 03:43:42;;;;;;;16.58;6.00;;;;;;;-2.64;94.25;102953.25;5046561;28;20079;-65
2022/02/27 03:46:08;;;;;;;18.52;6.55;;;;;;;-2.66;94.10;102950.72;5042333;28;20033;-65
2022/02/27 03:48:33;;;;;;;15.68;6.95;;;;;;;-2.69;94.38;102945.72;5044452;28;20029;-65
2022/02/27 03:50:59;;;;;;;25.75;6.53;;;;;;;-2.71;94.21;102947.44;5033710;28;20043;-65
2022/02/27 03:53:25;;;;;;;20.23;6.13;;;;;;;-2.72;94.30;102943.19;5038946;28;20053;-65
2022/02/27 03:55:50;;;;;;;20.58;6.90;;;;;;;-2.76;94.22;102939.00;5042704;28;20383;-65
2022/02/27 03:58:16;;;;;;;18.17;6.03;;;;;;;-2.79;94.15;102947.53;5048286;28;20056;-65
2022/02/27 04:00:41;;;;;;;14.27;5.88;;;;;;;-2.80;94.42;102948.34;5015310;28;20434;-65
2022/02/27 04:03:08;;;;;;;18.80;6.03;;;;;;;-2.80;94.40;102952.59;5051594;28;20091;-65
2022/02/27 04:05:34;;;;;;;19.50;5.63;;;;;;;-2.83;94.63;102952.63;5047986;28;20041;-65
2022/02/27 04:08:00;;;;;;;20.08;5.75;;;;;;;-2.85;94.32;102957.72;5050081;28;20033;-65
2022/02/27 04:10:26;;;;;;;21.63;6.25;;;;;;;-2.86;94.52;102953.50;5045320;28;20057;-65
2022/02/27 04:12:52;;;;;;;22.25;6.07;;;;;;;-2.81;94.53;102958.53;5054779;28;20021;-65
2022/02/27 04:15:17;;;;;;;17.52;6.20;;;;;;;-2.84;94.34;102951.81;5045144;28;20036;-65
2022/02/27 04:17:43;;;;;;;17.38;6.30;;;;;;;-2.84;94.30;102956.88;5029193;28;20060;-65
2022/02/27 04:20:09;;;;;;;15.35;5.38;;;;;;;-2.87;94.75;102961.16;5046891;28;20527;-65
2022/02/27 04:22:34;;;;;;;16.35;5.63;;;;;;;-2.90;94.90;102951.88;5047350;28;20033;-64
2022/02/27 04:25:00;;;;;;;19.25;5.45;;;;;;;-2.91;95.06;102959.50;5033483;28;20043;-65
2022/02/27 04:27:26;;;;;;;12.98;5.18;;;;;;;-2.95;94.83;102956.97;5045200;28;20154;-65
2022/02/27 04:29:51;;;;;;;13.55;6.15;;;;;;;-2.96;95.34;102960.41;5031775;28;20036;-65
2022/02/27 04:32:17;;;;;;;13.30;5.60;;;;;;;-3.00;95.20;102960.44;5045189;28;20032;-65
2022/02/27 04:34:42;;;;;;;19.48;5.25;;;;;;;-3.05;95.19;102960.50;5046550;28;20037;-65
2022/02/27 04:37:08;;;;;;;15.38;5.50;;;;;;;-3.09;95.15;102960.50;5049156;28;20025;-65
2022/02/27 04:39:33;;;;;;;15.00;5.82;;;;;;;-3.11;95.32;102957.16;5044395;28;20038;-65
2022/02/27 04:41:59;;;;;;;19.80;6.43;;;;;;;-3.12;95.25;102961.41;5027362;28;20441;-65
2022/02/27 04:44:24;;;;;;;17.90;6.78;;;;;;;-3.14;95.41;102966.47;5049025;28;20438;-65
2022/02/27 04:46:50;;;;;;;18.90;6.40;;;;;;;-3.14;95.11;102960.56;5051019;28;20474;-65
2022/02/27 04:49:15;;;;;;;19.23;6.45;;;;;;;-3.15;95.41;102953.81;5034674;28;20032;-65
2022/02/27 04:51:41;;;;;;;16.10;5.75;;;;;;;-3.17;95.30;102950.44;5046431;28;20029;-65
2022/02/27 04:54:06;;;;;;;21.73;5.78;;;;;;;-3.20;95.40;102953.84;5050702;28;20074;-65
2022/02/27 04:56:32;;;;;;;16.23;5.50;;;;;;;-3.21;94.98;102959.78;5034305;28;20032;-65
2022/02/27 04:58:57;;;;;;;19.20;5.82;;;;;;;-3.25;95.00;102958.13;5033366;28;20029;-65
2022/02/27 05:01:23;;;;;;;29.83;6.65;;;;;;;-3.27;95.07;102948.84;5047460;28;20037;-65
2022/02/27 05:03:48;;;;;;;17.40;6.25;;;;;;;-3.29;95.02;102945.50;5048952;28;20532;-65
2022/02/27 05:06:14;;;;;;;17.95;5.97;;;;;;;-3.29;94.99;102940.41;5046537;28;20037;-65
2022/02/27 05:08:40;;;;;;;19.38;6.25;;;;;;;-3.33;95.00;102950.59;5045097;28;20506;-65
2022/02/27 05:11:06;;;;;;;17.55;6.15;;;;;;;-3.35;95.28;102947.22;5047945;28;20028;-65
2022/02/27 05:13:32;;;;;;;21.85;6.13;;;;;;;-3.36;95.27;102949.78;5051739;28;20112;-65
2022/02/27 05:15:57;;;;;;;14.52;5.43;;;;;;;-3.37;95.23;102951.47;5046755;28;20474;-65
2022/02/27 05:18:23;;;;;;;16.70;5.68;;;;;;;-3.41;95.26;102947.28;5047426;28;20028;-65
2022/02/27 05:20:48;;;;;;;20.05;5.70;;;;;;;-3.44;95.16;102941.41;5028727;28;20687;-65
2022/02/27 05:23:13;;;;;;;15.27;5.93;;;;;;;-3.45;95.35;102932.91;5047920;28;20032;-65
2022/02/27 05:25:39;;;;;;;23.00;6.07;;;;;;;-3.47;95.37;102932.09;5051529;28;20037;-65
2022/02/27 05:28:04;;;;;;;14.10;6.07;;;;;;;-3.45;95.42;102932.09;5046373;28;20559;-65
2022/02/27 05:30:30;;;;;;;14.82;6.45;;;;;;;-3.45;95.84;102934.63;5043689;28;20029;-65
2022/02/27 05:32:56;;;;;;;18.92;6.78;;;;;;;-3.46;95.81;102941.41;5032781;28;20398;-65
2022/02/27 05:35:21;;;;;;;19.75;5.70;;;;;;;-3.45;95.97;102937.16;5029341;28;20384;-65
2022/02/27 05:37:47;;;;;;;18.90;7.95;;;;;;;-3.45;96.07;102942.22;5044604;28;20087;-64
2022/02/27 05:40:12;;;;;;;19.70;7.03;;;;;;;-3.49;96.14;102946.50;5044022;28;20083;-65
2022/02/27 05:42:38;;;;;;;21.98;6.78;;;;;;;-3.50;96.24;102944.81;5049115;28;20037;-64
2022/02/27 05:45:05;;;;;;;23.58;6.57;;;;;;;-3.50;96.13;102949.03;5045348;28;20426;-65
2022/02/27 05:47:30;;;;;;;18.20;5.50;;;;;;;-3.52;96.32;102946.53;5024642;28;20025;-65
2022/02/27 05:49:56;;;;;;;20.67;6.32;;;;;;;-3.52;96.18;102949.06;5049118;28;20399;-65
2022/02/27 05:52:21;;;;;;;18.20;6.30;;;;;;;-3.48;96.42;102948.19;5040308;28;20033;-65
2022/02/27 05:54:47;;;;;;;16.02;6.40;;;;;;;-3.44;96.41;102942.22;5034745;28;20041;-65
2022/02/27 05:57:13;;;;;;;20.73;4.50;;;;;;;-3.40;96.94;102945.56;5049960;28;20052;-65
2022/02/27 05:59:38;;;;;;;16.65;5.35;;;;;;;-3.28;97.12;102937.84;5035593;28;20024;-64
2022/02/27 06:02:04;;;;;;;22.38;6.07;;;;;;;-3.22;97.29;102936.94;5048744;28;20385;-65
2022/02/27 06:04:30;;;;;;;21.58;4.93;;;;;;;-3.11;97.66;102936.84;5032448;28;20108;-66
2022/02/27 06:06:55;;;;;;;21.00;4.90;;;;;;;-2.99;97.64;102946.88;5036851;28;20503;-65
2022/02/27 06:09:21;;;;;;;22.63;4.70;;;;;;;-2.94;97.49;102942.56;5049532;28;20032;-65
2022/02/27 06:11:47;;;;;;;13.35;4.38;;;;;;;-2.92;97.49;102940.88;5034383;28;20021;-65
2022/02/27 06:14:12;;;;;;;20.40;4.53;;;;;;;-2.92;97.54;102934.94;5048225;28;20549;-65
2022/02/27 06:16:38;;;;;;;20.45;4.47;;;;;;;-2.91;97.28;102941.72;5038831;28;20040;-65
2022/02/27 06:19:03;;;;;;;12.35;4.45;;;;;;;-2.96;97.48;102941.75;5038838;28;20423;-65
2022/02/27 06:21:29;;;;;;;24.90;4.90;;;;;;;-2.96;97.30;102940.09;5033998;28;20584;-65
2022/02/27 06:23:55;;;;;;;11.90;4.15;;;;;;;-2.96;97.52;102950.25;5030126;28;20032;-65
2022/02/27 06:26:20;;;;;;;15.15;4.57;;;;;;;-2.97;97.27;102940.09;5042325;28;20429;-65
2022/02/27 06:28:46;;;;;;;17.23;5.00;;;;;;;-2.99;97.32;102949.44;5051668;28;20032;-65
2022/02/27 06:31:11;;;;;;;15.02;3.85;;;;;;;-3.01;97.45;102946.91;5041771;28;20045;-65
2022/02/27 06:33:37;;;;;;;20.35;4.35;;;;;;;-3.03;97.14;102952.81;5031835;28;20044;-65
2022/02/27 06:36:02;;;;;;;14.32;5.07;;;;;;;-3.09;97.02;102958.81;5027278;28;20156;-65
2022/02/27 06:38:28;;;;;;;14.77;4.25;;;;;;;-3.11;97.20;102957.16;5044932;28;20163;-65
2022/02/27 06:40:54;;;;;;;15.45;4.75;;;;;;;-3.15;96.77;102956.34;5024683;28;20032;-65
2022/02/27 06:43:19;;;;;;;15.57;4.25;;;;;;;-3.13;97.09;102958.03;5042518;28;20033;-65
2022/02/27 06:45:45;;;;;;;12.45;4.10;;;;;;;-3.11;97.09;102957.97;5027186;28;20481;-65
2022/02/27 06:48:10;;;;;;;17.73;3.85;;;;;;;-3.05;97.06;102957.94;5044235;28;20028;-65
2022/02/27 06:50:36;;;;;;;22.85;4.53;;;;;;;-3.08;96.83;102965.59;5048000;28;20060;-64
2022/02/27 06:53:01;;;;;;;11.55;3.85;;;;;;;-3.07;97.03;102958.78;5052880;28;20025;-65
2022/02/27 06:55:27;;;;;;;18.00;4.20;;;;;;;-3.07;96.94;102957.13;5032473;28;20380;-65
2022/02/27 06:57:52;;;;;;;14.63;4.32;;;;;;;-3.07;97.04;102964.75;5042675;28;20071;-65
2022/02/27 07:00:19;;;;;;;16.88;3.80;;;;;;;-3.08;97.07;102963.03;5029028;28;20683;-65
2022/02/27 07:02:45;;;;;;;14.77;4.40;;;;;;;-3.08;97.00;102969.81;5032130;28;20034;-65
2022/02/27 07:05:11;;;;;;;18.40;3.88;;;;;;;-3.04;97.10;102972.31;5040911;28;20060;-65
2022/02/27 07:07:37;;;;;;;12.98;4.28;;;;;;;-2.97;97.38;102970.56;5021197;28;20056;-65
2022/02/27 07:10:04;;;;;;;13.07;4.13;;;;;;;-2.96;97.28;102973.09;5045606;28;20394;-65
2022/02/27 07:12:30;;;;;;;18.85;5.18;;;;;;;-2.94;97.18;102983.19;5027496;28;20531;-65
2022/02/27 07:14:57;;;;;;;13.65;4.20;;;;;;;-2.91;97.36;102982.34;5040627;28;20405;-65
2022/02/27 07:17:24;;;;;;;15.75;3.97;;;;;;;-2.85;97.51;102980.56;5072842;22;20109;-67
2022/02/27 07:19:49;;;;;;;15.63;4.10;;;;;;;-2.72;97.30;102976.22;5053703;28;20033;-66
2022/02/27 07:22:15;;;;;;;14.10;4.57;;;;;;;-2.62;97.62;102982.88;5043035;28;20431;-67
2022/02/27 07:24:41;;;;;;;19.77;4.68;;;;;;;-2.55;97.77;102983.66;5049115;28;20036;-67
2022/02/27 07:27:06;;;;;;;15.10;4.40;;;;;;;-2.50;97.66;102981.06;5062409;28;20039;-67
2022/02/27 07:29:32;;;;;;;14.13;4.70;;;;;;;-2.41;97.54;102984.34;5054495;28;20111;-67
2022/02/27 07:31:59;;;;;;;18.15;5.47;;;;;;;-2.15;98.08;102985.69;5053723;28;20032;-67
2022/02/27 07:34:24;;;;;;;20.23;5.47;;;;;;;-1.63;98.14;102979.84;5035635;28;20433;-67
2022/02/27 07:36:51;;;;;;;25.88;5.45;;;;;;;-1.02;96.33;102980.56;5054133;28;20078;-67
2022/02/27 07:39:20;;;;;;;22.02;5.20;;;;;;;-0.54;93.14;102978.81;5069212;28;20030;-67
2022/02/27 07:41:45;;;;;;;13.27;5.07;;;;;;;0.12;88.79;102970.56;5069500;28;20035;-67
2022/02/27 07:44:13;;;;;;;17.60;4.25;;;;;;;0.65;85.26;102972.72;5037672;28;20035;-67
2022/02/27 07:46:39;;;;;;;15.77;4.32;;;;;;;1.01;82.89;102985.41;5073787;28;20021;-68
2022/02/27 07:49:05;;;;;;;11.35;4.50;;;;;;;1.31;80.25;102981.19;5054452;28;20475;-68
2022/02/27 07:51:31;;;;;;;17.80;4.57;;;;;;;1.54;77.98;102983.13;5052604;28;20033;-68
2022/02/27 07:53:56;;;;;;;16.85;4.22;;;;;;;1.73;78.16;102978.28;5056601;28;20040;-68
2022/02/27 07:56:23;;;;;;;19.10;5.05;;;;;;;1.89;76.42;102986.34;5054664;28;20032;-68
2022/02/27 07:58:48;;;;;;;10.40;4.18;;;;;;;2.14;75.44;102980.47;5069447;28;20075;-68
2022/02/27 08:01:14;;;;;;;13.35;4.00;;;;;;;2.17;74.02;102979.53;5053988;28;20413;-68
2022/02/27 08:03:40;;;;;;;19.35;4.70;;;;;;;2.34;73.44;102984.97;5069999;28;20028;-69
2022/02/27 08:06:06;;;;;;;14.30;4.55;;;;;;;2.33;73.39;102976.44;5053563;28;20154;-68
2022/02/27 08:08:33;;;;;;;13.13;4.43;;;;;;;2.51;71.95;102975.00;5054400;28;20482;-68
2022/02/27 08:10:59;;;;;;;7.65;3.75;;;;;;;2.77;71.92;102975.88;5072709;28;20032;-68
2022/02/27 08:13:24;;;;;;;10.80;3.83;;;;;;;3.03;71.46;102981.81;5071866;28;20397;-69
2022/02/27 08:15:50;;;;;;;14.98;5.00;;;;;;;3.44;70.15;102970.06;5051670;28;20028;-69
2022/02/27 08:18:16;;;;;;;14.50;3.85;;;;;;;3.84;68.03;102980.56;5050932;28;20811;-69
2022/02/27 08:20:42;;;;;;;14.38;4.18;;;;;;;4.13;67.34;102983.75;5068058;28;20253;-69
2022/02/27 08:23:08;;;;;;;14.90;4.78;;;;;;;4.45;65.29;102974.75;5068056;28;20032;-69
2022/02/27 08:25:34;;;;;;;9.57;3.83;;;;;;;4.60;64.55;102983.56;5067483;28;20032;-69
2022/02/27 08:28:00;;;;;;;11.70;3.97;;;;;;;4.66;63.93;102975.59;5051572;28;20048;-69
2022/02/27 08:30:25;;;;;;;11.07;4.90;;;;;;;5.04;62.45;102979.09;5068499;28;20055;-69
2022/02/27 08:32:51;;;;;;;11.85;4.28;;;;;;;5.11;61.58;102977.09;5070705;28;20058;-69
2022/02/27 08:35:17;;;;;;;15.18;4.68;;;;;;;5.44;60.69;102979.06;5056349;28;20032;-70
2022/02/27 08:37:44;;;;;;;13.38;4.65;;;;;;;5.43;60.46;102982.56;5032990;28;20111;-69
2022/02/27 08:40:09;;;;;;;15.95;4.10;;;;;;;5.82;58.89;102981.59;5047467;28;20048;-69
2022/02/27 08:42:35;;;;;;;10.95;3.17;;;;;;;5.87;58.33;102978.84;5049585;28;20039;-69
2022/02/27 08:45:00;;;;;;;9.63;3.80;;;;;;;6.09;57.43;102982.09;5047606;28;20047;-70
2022/02/27 08:47:26;;;;;;;18.92;4.25;;;;;;;6.27;58.01;102970.03;5065653;28;20055;-70
2022/02/27 08:49:51;;;;;;;12.70;4.20;;;;;;;6.55;58.13;102973.84;5061969;28;20036;-70
2022/02/27 08:52:17;;;;;;;11.50;4.22;;;;;;;6.31;58.07;102970.72;5047459;28;20033;-70
2022/02/27 08:54:43;;;;;;;9.38;3.63;;;;;;;6.49;58.40;102969.84;5066154;28;20074;-70
2022/02/27 08:57:08;;;;;;;16.95;4.00;;;;;;;6.72;56.70;102973.81;5065303;28;20486;-70
2022/02/27 08:59:34;;;;;;;8.43;3.53;;;;;;;6.48;57.06;102967.31;5044594;28;20617;-70
2022/02/27 09:01:59;;;;;;;14.43;4.22;;;;;;;6.50;57.38;102971.50;5048297;28;20031;-70
2022/02/27 09:04:25;;;;;;;11.95;3.88;;;;;;;6.63;57.01;102959.66;5048963;28;20028;-69
2022/02/27 09:06:51;;;;;;;10.77;4.32;;;;;;;6.27;56.65;102959.75;5058748;28;20509;-69
2022/02/27 09:09:16;;;;;;;9.20;3.97;;;;;;;6.26;56.07;102963.25;5050533;28;20516;-70
2022/02/27 09:11:42;;;;;;;28.92;7.20;;;;;;;6.23;57.15;102964.25;5066175;28;20029;-69
2022/02/27 09:14:08;;;;;;;23.85;6.47;;;;;;;6.18;57.21;102962.78;5050029;28;20028;-70
2022/02/27 09:16:33;;;;;;;33.65;9.98;;;;;;;6.28;56.65;102958.03;5047876;28;20108;-69
2022/02/27 09:18:59;;;;;;;33.13;10.68;;;;;;;6.54;56.47;102959.31;5058111;28;20033;-69
2022/02/27 09:21:28;;;;;;;14.43;4.78;;;;;;;6.26;57.03;102963.25;5037023;28;20094;-69
2022/02/27 09:23:54;;;;;;;18.90;6.47;;;;;;;5.80;57.39;102966.25;5066261;28;20115;-69
2022/02/27 09:26:19;;;;;;;27.50;7.30;;;;;;;5.59;58.22;102967.22;5045985;28;20453;-69
2022/02/27 09:28:45;;;;;;;43.05;13.20;;;;;;;5.64;58.33;102973.00;5050108;28;20036;-69
2022/02/27 09:31:11;;;;;;;17.10;5.93;;;;;;;5.29;59.14;102960.00;5068429;28;20509;-69
2022/02/27 09:33:37;;;;;;;13.38;4.43;;;;;;;5.04;59.92;102973.94;5052569;28;20032;-69
2022/02/27 09:36:02;;;;;;;22.50;6.97;;;;;;;4.94;60.57;102977.81;5046456;28;20027;-69
2022/02/27 09:38:28;;;;;;;20.27;6.88;;;;;;;4.92;60.45;102976.22;5047891;28;20081;-69
2022/02/27 09:40:54;;;;;;;12.98;4.45;;;;;;;5.02;61.18;102982.63;5064932;28;20029;-69
2022/02/27 09:43:20;;;;;;;10.65;4.57;;;;;;;5.00;59.95;102969.00;5050175;28;20097;-70
2022/02/27 09:45:47;;;;;;;11.27;3.85;;;;;;;4.93;60.56;102973.56;5066054;28;20107;-69
2022/02/27 09:48:13;;;;;;;13.98;3.90;;;;;;;5.02;60.38;102968.03;5069081;28;20044;-70
2022/02/27 09:50:40;;;;;;;10.48;3.92;;;;;;;4.99;60.30;102969.91;5064806;28;20028;-69
2022/02/27 09:53:09;;;;;;;16.15;4.05;;;;;;;5.06;60.99;102966.16;5041855;28;20051;-69
2022/02/27 09:55:36;;;;;;;14.43;4.30;;;;;;;5.01;60.44;102970.66;5051689;28;20036;-70
2022/02/27 09:58:03;;;;;;;11.68;5.50;;;;;;;5.22;59.84;102972.31;5067193;28;20480;-70
2022/02/27 10:00:29;;;;;;;11.48;4.20;;;;;;;5.20;59.74;102974.13;5064410;28;20399;-70
2022/02/27 10:03:04;;;;;;;14.55;4.30;;;;;;;5.11;60.03;102965.97;5067032;28;20028;-69
2022/02/27 10:05:30;;;;;;;9.73;3.72;;;;;;;5.17;59.36;102965.69;5035998;28;20024;-70
2022/02/27 10:07:57;;;;;;;13.52;4.38;;;;;;;5.21;59.17;102972.38;5050145;28;20083;-69
2022/02/27 10:10:22;;;;;;;14.10;4.35;;;;;;;5.20;59.57;102973.28;5061594;28;20029;-70
2022/02/27 10:12:48;;;;;;;13.10;4.10;;;;;;;5.19;60.24;102969.88;5063718;28;20040;-69
2022/02/27 10:15:15;;;;;;;8.10;4.05;;;;;;;5.33;59.54;102971.84;5063365;28;20048;-69
2022/02/27 10:17:42;;;;;;;13.05;3.95;;;;;;;5.37;60.57;102973.38;5064975;28;20085;-70
2022/02/27 10:20:14;;;;;;;12.43;4.22;;;;;;;5.48;59.75;102960.00;5046283;28;20033;-69
2022/02/27 10:22:45;;;;;;;12.32;4.90;;;;;;;5.56;59.77;102962.25;5064670;28;20107;-69
2022/02/27 10:25:21;;;;;;;11.15;3.80;;;;;;;5.70;57.90;102953.88;5043901;28;20062;-69
2022/02/27 10:27:53;;;;;;;10.93;3.95;;;;;;;5.87;58.51;102956.47;5046885;28;20047;-69
2022/02/27 10:30:29;;;;;;;13.20;5.63;;;;;;;5.92;57.77;102959.69;5043727;28;20016;-69
2022/02/27 10:33:11;;;;;;;9.77;4.70;;;;;;;5.98;55.99;102953.44;5063632;28;20028;-70
2022/02/27 10:35:44;;;;;;;12.38;3.60;;;;;;;6.02;56.29;102962.69;5064305;28;20032;-69
2022/02/27 10:38:11;;;;;;;;;;;;;;;6.01;55.96;102953.31;5049419;28;20051;-69
2022/02/27 10:40:40;;;;;;;24.15;6.63;;;;;;;6.11;56.12;102953.69;5050561;28;20332;-69
2022/02/27 10:43:10;;;;;;;15.43;4.72;;;;;;;6.12;55.00;102947.59;5063434;28;20459;-69
2022/02/27 10:45:36;;;;;;;8.77;3.83;;;;;;;6.13;55.34;102949.28;5047092;28;20035;-69
2022/02/27 10:48:05;;;;;;;16.42;5.38;;;;;;;6.19;54.61;102952.38;5067338;28;20024;-70
2022/02/27 10:50:31;;;;;;;11.18;4.45;;;;;;;6.32;55.06;102944.91;5063103;28;20040;-69
2022/02/27 10:52:57;;;;;;;13.20;3.72;;;;;;;6.30;54.98;102944.13;5049895;28;20483;-70
2022/02/27 10:55:24;;;;;;;11.20;3.60;;;;;;;6.36;54.66;102938.66;5046193;28;20047;-69
2022/02/27 10:57:50;;;;;;;12.43;3.95;;;;;;;6.33;54.31;102920.81;5063045;28;20475;-69
2022/02/27 11:00:18;;;;;;;8.23;3.42;;;;;;;6.48;55.05;102933.81;5057617;28;20039;-69
2022/02/27 11:02:46;;;;;;;10.02;3.95;;;;;;;6.58;54.38;102928.13;5043748;28;20541;-70
2022/02/27 11:05:15;;;;;;;12.35;4.63;;;;;;;6.58;52.03;102919.56;5027704;28;20032;-69
2022/02/27 11:07:50;;;;;;;15.85;3.28;;;;;;;6.70;53.27;102913.78;5061060;28;20149;-69
2022/02/27 11:10:18;;;;;;;13.50;3.97;;;;;;;6.77;53.22;102909.16;5044079;28;20580;-69
2022/02/27 11:12:44;;;;;;;5.80;2.60;;;;;;;6.89;52.00;102916.22;5059112;28;20032;-69
2022/02/27 11:15:13;;;;;;;6.18;3.00;;;;;;;6.77;51.90;102904.00;5042811;28;20405;-69